sensor_id;sensor_type;location;lat;lon;timestamp;pressure;altitude;pressure_sealevel;temperature
45393;BMP280;31129;44.810;10.334;2022-10-04T00:09:58;101109.88;;;18.36
45393;BMP280;31129;44.810;10.334;2022-10-04T00:15:05;101104.34;;;18.36
45393;BMP280;31129;44.810;10.334;2022-10-04T00:17:32;101102.34;;;18.31
45393;BMP280;31129;44.810;10.334;2022-10-04T00:20:00;101103.41;;;18.28
45393;BMP280;31129;44.810;10.334;2022-10-04T00:27:35;101117.22;;;18.28
45393;BMP280;31129;44.810;10.334;2022-10-04T00:37:57;101106.91;;;18.29
45393;BMP280;31129;44.810;10.334;2022-10-04T00:40:27;101103.44;;;18.23
45393;BMP280;31129;44.810;10.334;2022-10-04T00:43:00;101108.75;;;18.21
45393;BMP280;31129;44.810;10.334;2022-10-04T00:45:40;101116.75;;;18.24
45393;BMP280;31129;44.810;10.334;2022-10-04T00:51:30;101124.56;;;18.20
45393;BMP280;31129;44.810;10.334;2022-10-04T01:04:43;101108.06;;;18.03
45393;BMP280;31129;44.810;10.334;2022-10-04T01:07:13;101105.84;;;17.96
45393;BMP280;31129;44.810;10.334;2022-10-04T01:09:49;101105.16;;;17.73
45393;BMP280;31129;44.810;10.334;2022-10-04T01:12:25;101094.63;;;17.72
45393;BMP280;31129;44.810;10.334;2022-10-04T01:15:03;101090.63;;;17.67
45393;BMP280;31129;44.810;10.334;2022-10-04T01:17:31;101087.16;;;17.61
45393;BMP280;31129;44.810;10.334;2022-10-04T01:19:57;101099.41;;;17.66
45393;BMP280;31129;44.810;10.334;2022-10-04T01:22:35;101092.66;;;17.67
45393;BMP280;31129;44.810;10.334;2022-10-04T01:25:02;101094.63;;;17.72
45393;BMP280;31129;44.810;10.334;2022-10-04T01:30:02;101076.66;;;17.49
45393;BMP280;31129;44.810;10.334;2022-10-04T01:32:30;101079.66;;;17.45
45393;BMP280;31129;44.810;10.334;2022-10-04T01:34:56;101072.13;;;17.40
45393;BMP280;31129;44.810;10.334;2022-10-04T01:37:22;101065.63;;;17.38
45393;BMP280;31129;44.810;10.334;2022-10-04T01:39:47;101066.63;;;17.34
45393;BMP280;31129;44.810;10.334;2022-10-04T01:42:29;101068.63;;;17.40
45393;BMP280;31129;44.810;10.334;2022-10-04T01:47:37;101064.88;;;17.37
45393;BMP280;31129;44.810;10.334;2022-10-04T01:50:09;101063.38;;;17.36
45393;BMP280;31129;44.810;10.334;2022-10-04T01:52:43;101061.13;;;17.34
45393;BMP280;31129;44.810;10.334;2022-10-04T01:55:26;101062.66;;;17.30
45393;BMP280;31129;44.810;10.334;2022-10-04T01:58:01;101071.63;;;17.42
45393;BMP280;31129;44.810;10.334;2022-10-04T02:00:37;101073.44;;;17.33
45393;BMP280;31129;44.810;10.334;2022-10-04T02:03:17;101074.19;;;17.34
45393;BMP280;31129;44.810;10.334;2022-10-04T02:05:53;101080.69;;;17.37
45393;BMP280;31129;44.810;10.334;2022-10-04T02:08:31;101069.44;;;17.23
45393;BMP280;31129;44.810;10.334;2022-10-04T02:10:58;101071.19;;;17.21
45393;BMP280;31129;44.810;10.334;2022-10-04T02:13:26;101077.19;;;17.19
45393;BMP280;31129;44.810;10.334;2022-10-04T02:15:55;101060.69;;;17.14
45393;BMP280;31129;44.810;10.334;2022-10-04T02:18:22;101063.16;;;17.12
45393;BMP280;31129;44.810;10.334;2022-10-04T02:20:49;101062.91;;;17.10
45393;BMP280;31129;44.810;10.334;2022-10-04T02:23:17;101064.16;;;17.25
45393;BMP280;31129;44.810;10.334;2022-10-04T02:25:43;101064.66;;;17.24
45393;BMP280;31129;44.810;10.334;2022-10-04T02:28:10;101065.19;;;17.17
45393;BMP280;31129;44.810;10.334;2022-10-04T02:30:39;101076.50;;;17.13
45393;BMP280;31129;44.810;10.334;2022-10-04T02:33:06;101064.47;;;16.88
45393;BMP280;31129;44.810;10.334;2022-10-04T02:35:34;101068.47;;;16.93
45393;BMP280;31129;44.810;10.334;2022-10-04T02:38:12;101074.00;;;16.99
45393;BMP280;31129;44.810;10.334;2022-10-04T02:40:47;101068.97;;;16.91
45393;BMP280;31129;44.810;10.334;2022-10-04T02:43:27;101064.47;;;16.88
45393;BMP280;31129;44.810;10.334;2022-10-04T02:46:07;101066.50;;;16.82
45393;BMP280;31129;44.810;10.334;2022-10-04T02:48:40;101058.22;;;16.71
45393;BMP280;31129;44.810;10.334;2022-10-04T02:51:19;101058.47;;;16.73
45393;BMP280;31129;44.810;10.334;2022-10-04T02:56:28;101057.19;;;16.85
45393;BMP280;31129;44.810;10.334;2022-10-04T02:58:59;101065.97;;;16.78
45393;BMP280;31129;44.810;10.334;2022-10-04T03:01:57;101065.72;;;16.76
45393;BMP280;31129;44.810;10.334;2022-10-04T03:04:39;101060.94;;;16.77
45393;BMP280;31129;44.810;10.334;2022-10-04T03:07:06;101063.72;;;16.77
45393;BMP280;31129;44.810;10.334;2022-10-04T03:09:33;101062.47;;;16.78
45393;BMP280;31129;44.810;10.334;2022-10-04T03:12:01;101070.19;;;16.79
45393;BMP280;31129;44.810;10.334;2022-10-04T03:14:28;101066.97;;;16.75
45393;BMP280;31129;44.810;10.334;2022-10-04T03:16:58;101067.22;;;16.66
45393;BMP280;31129;44.810;10.334;2022-10-04T03:19:26;101068.75;;;16.73
45393;BMP280;31129;44.810;10.334;2022-10-04T03:21:57;101072.97;;;16.74
45393;BMP280;31129;44.810;10.334;2022-10-04T03:24:27;101069.22;;;16.71
45393;BMP280;31129;44.810;10.334;2022-10-04T03:26:57;101075.22;;;16.75
45393;BMP280;31129;44.810;10.334;2022-10-04T03:29:27;101066.97;;;16.75
45393;BMP280;31129;44.810;10.334;2022-10-04T03:31:55;101078.75;;;16.81
45393;BMP280;31129;44.810;10.334;2022-10-04T03:34:27;101073.50;;;16.83
45393;BMP280;31129;44.810;10.334;2022-10-04T03:36:56;101074.22;;;16.84
45393;BMP280;31129;44.810;10.334;2022-10-04T03:39:45;101067.72;;;16.87
45393;BMP280;31129;44.810;10.334;2022-10-04T03:42:17;101076.00;;;16.92
45393;BMP280;31129;44.810;10.334;2022-10-04T03:44:49;101078.50;;;16.90
45393;BMP280;31129;44.810;10.334;2022-10-04T03:47:21;101080.97;;;16.94
45393;BMP280;31129;44.810;10.334;2022-10-04T03:49:49;101080.97;;;16.94
45393;BMP280;31129;44.810;10.334;2022-10-04T03:52:22;101072.47;;;17.03
45393;BMP280;31129;44.810;10.334;2022-10-04T03:54:51;101087.78;;;17.04
45393;BMP280;31129;44.810;10.334;2022-10-04T03:57:17;101079.00;;;17.00
45393;BMP280;31129;44.810;10.334;2022-10-04T03:59:43;101076.22;;;16.94
45393;BMP280;31129;44.810;10.334;2022-10-04T04:10:34;101080.25;;;16.88
45393;BMP280;31129;44.810;10.334;2022-10-04T04:13:13;101079.50;;;16.87
45393;BMP280;31129;44.810;10.334;2022-10-04T04:15:41;101092.28;;;16.90
45393;BMP280;31129;44.810;10.334;2022-10-04T04:18:24;101096.81;;;16.88
45393;BMP280;31129;44.810;10.334;2022-10-04T04:20:54;101098.03;;;16.92
45393;BMP280;31129;44.810;10.334;2022-10-04T04:23:38;101093.81;;;16.97
45393;BMP280;31129;44.810;10.334;2022-10-04T04:26:33;101098.28;;;17.06
45393;BMP280;31129;44.810;10.334;2022-10-04T04:31:50;101098.53;;;17.08
45393;BMP280;31129;44.810;10.334;2022-10-04T04:34:50;101090.78;;;17.01
45393;BMP280;31129;44.810;10.334;2022-10-04T04:37:17;101102.06;;;17.08
45393;BMP280;31129;44.810;10.334;2022-10-04T04:39:43;101099.31;;;17.14
45393;BMP280;31129;44.810;10.334;2022-10-04T04:42:29;101111.59;;;17.18
45393;BMP280;31129;44.810;10.334;2022-10-04T04:45:03;101102.28;;;17.21
45393;BMP280;31129;44.810;10.334;2022-10-04T04:47:47;101117.59;;;17.28
45393;BMP280;31129;44.810;10.334;2022-10-04T04:50:20;101119.13;;;17.12
45393;BMP280;31129;44.810;10.334;2022-10-04T04:52:50;101124.34;;;17.21
45393;BMP280;31129;44.810;10.334;2022-10-04T04:55:27;101117.31;;;17.20
45393;BMP280;31129;44.810;10.334;2022-10-04T04:57:54;101108.06;;;17.29
45393;BMP280;31129;44.810;10.334;2022-10-04T05:00:31;101106.75;;;17.41
45393;BMP280;31129;44.810;10.334;2022-10-04T05:03:03;101115.31;;;17.32
45393;BMP280;31129;44.810;10.334;2022-10-04T05:05:30;101112.28;;;17.36
45393;BMP280;31129;44.810;10.334;2022-10-04T05:08:26;101114.06;;;17.39
45393;BMP280;31129;44.810;10.334;2022-10-04T05:11:04;101116.28;;;17.40
45393;BMP280;31129;44.810;10.334;2022-10-04T05:13:40;101113.31;;;17.44
45393;BMP280;31129;44.810;10.334;2022-10-04T05:19:05;101119.03;;;17.40
45393;BMP280;31129;44.810;10.334;2022-10-04T05:21:33;101129.13;;;17.43
45393;BMP280;31129;44.810;10.334;2022-10-04T05:24:13;101127.09;;;17.44
45393;BMP280;31129;44.810;10.334;2022-10-04T05:26:42;101126.59;;;17.34
45393;BMP280;31129;44.810;10.334;2022-10-04T05:29:13;101130.63;;;17.27
45393;BMP280;31129;44.810;10.334;2022-10-04T05:34:22;101130.09;;;17.40
45393;BMP280;31129;44.810;10.334;2022-10-04T05:42:39;101130.34;;;17.25
45393;BMP280;31129;44.810;10.334;2022-10-04T05:45:29;101139.66;;;17.33
45393;BMP280;31129;44.810;10.334;2022-10-04T05:48:00;101142.91;;;17.32
45393;BMP280;31129;44.810;10.334;2022-10-04T05:50:30;101150.94;;;17.30
45393;BMP280;31129;44.810;10.334;2022-10-04T05:53:33;101151.66;;;17.25
45393;BMP280;31129;44.810;10.334;2022-10-04T06:17:25;101181.53;;;17.49
45393;BMP280;31129;44.810;10.334;2022-10-04T06:20:38;101173.00;;;17.47
45393;BMP280;31129;44.810;10.334;2022-10-04T06:22:47;101178.50;;;17.47
45393;BMP280;31129;44.810;10.334;2022-10-04T06:30:23;101195.06;;;17.63
45393;BMP280;31129;44.810;10.334;2022-10-04T06:36:03;101219.06;;;17.96
45393;BMP280;31129;44.810;10.334;2022-10-04T06:41:22;101216.63;;;17.65
45393;BMP280;31129;44.810;10.334;2022-10-04T06:49:56;101215.63;;;17.51
45393;BMP280;31129;44.810;10.334;2022-10-04T06:58:44;101234.44;;;17.53
45393;BMP280;31129;44.810;10.334;2022-10-04T07:01:24;101237.94;;;17.64
45393;BMP280;31129;44.810;10.334;2022-10-04T07:09:25;101248.75;;;17.68
45393;BMP280;31129;44.810;10.334;2022-10-04T07:12:03;101256.28;;;17.67
45393;BMP280;31129;44.810;10.334;2022-10-04T07:14:38;101246.47;;;17.78
45393;BMP280;31129;44.810;10.334;2022-10-04T07:17:12;101257.50;;;17.72
45393;BMP280;31129;44.810;10.334;2022-10-04T07:19:41;101254.50;;;17.76
45393;BMP280;31129;44.810;10.334;2022-10-04T07:22:21;101269.06;;;17.82
45393;BMP280;31129;44.810;10.334;2022-10-04T07:24:58;101267.81;;;17.88
45393;BMP280;31129;44.810;10.334;2022-10-04T07:30:14;101284.81;;;18.15
45393;BMP280;31129;44.810;10.334;2022-10-04T07:32:44;101287.50;;;18.42
45393;BMP280;31129;44.810;10.334;2022-10-04T07:40:35;101309.56;;;18.54
45393;BMP280;31129;44.810;10.334;2022-10-04T07:43:10;101309.03;;;18.66
45393;BMP280;31129;44.810;10.334;2022-10-04T07:45:40;101314.34;;;18.53
45393;BMP280;31129;44.810;10.334;2022-10-04T07:48:15;101322.38;;;18.57
45393;BMP280;31129;44.810;10.334;2022-10-04T07:51:06;101320.66;;;18.42
45393;BMP280;31129;44.810;10.334;2022-10-04T07:53:41;101329.19;;;18.50
45393;BMP280;31129;44.810;10.334;2022-10-04T07:56:17;101324.84;;;18.66
45393;BMP280;31129;44.810;10.334;2022-10-04T08:01:38;101319.03;;;18.69
45393;BMP280;31129;44.810;10.334;2022-10-04T08:04:10;101316.75;;;18.73
45393;BMP280;31129;44.810;10.334;2022-10-04T08:06:55;101310.69;;;18.86
45393;BMP280;31129;44.810;10.334;2022-10-04T08:09:36;101309.34;;;18.98
45393;BMP280;31129;44.810;10.334;2022-10-04T08:12:33;101305.84;;;18.98
45393;BMP280;31129;44.810;10.334;2022-10-04T08:15:33;101310.81;;;19.05
45393;BMP280;31129;44.810;10.334;2022-10-04T08:20:46;101303.53;;;19.02
45393;BMP280;31129;44.810;10.334;2022-10-04T08:28:55;101302.56;;;18.93
45393;BMP280;31129;44.810;10.334;2022-10-04T08:48:43;101304.41;;;19.26
45393;BMP280;31129;44.810;10.334;2022-10-04T09:02:16;101320.16;;;19.37
45393;BMP280;31129;44.810;10.334;2022-10-04T09:05:04;101323.91;;;19.45
45393;BMP280;31129;44.810;10.334;2022-10-04T09:10:34;101330.75;;;19.33
45393;BMP280;31129;44.810;10.334;2022-10-04T09:21:10;101336.84;;;19.61
45393;BMP280;31129;44.810;10.334;2022-10-04T09:24:04;101340.41;;;19.56
45393;BMP280;31129;44.810;10.334;2022-10-04T09:26:48;101344.84;;;19.65
45393;BMP280;31129;44.810;10.334;2022-10-04T09:29:38;101336.56;;;19.65
45393;BMP280;31129;44.810;10.334;2022-10-04T09:49:50;101353.66;;;20.23
45393;BMP280;31129;44.810;10.334;2022-10-04T09:52:39;101355.13;;;20.24
45393;BMP280;31129;44.810;10.334;2022-10-04T10:01:04;101368.38;;;20.55
45393;BMP280;31129;44.810;10.334;2022-10-04T10:11:47;101381.16;;;21.02
45393;BMP280;31129;44.810;10.334;2022-10-04T10:14:52;101373.47;;;21.08
45393;BMP280;31129;44.810;10.334;2022-10-04T10:17:44;101380.19;;;21.18
45393;BMP280;31129;44.810;10.334;2022-10-04T10:36:43;101385.34;;;21.27
45393;BMP280;31129;44.810;10.334;2022-10-04T10:39:35;101394.25;;;21.38
45393;BMP280;31129;44.810;10.334;2022-10-04T10:48:44;101396.16;;;21.62
45393;BMP280;31129;44.810;10.334;2022-10-04T10:51:08;101393.00;;;21.53
45393;BMP280;31129;44.810;10.334;2022-10-04T10:56:33;101396.50;;;21.72
45393;BMP280;31129;44.810;10.334;2022-10-04T10:59:15;101396.72;;;21.87
45393;BMP280;31129;44.810;10.334;2022-10-04T11:05:15;101392.16;;;21.90
45393;BMP280;31129;44.810;10.334;2022-10-04T11:27:03;101377.63;;;22.23
45393;BMP280;31129;44.810;10.334;2022-10-04T11:57:50;101387.97;;;22.62
45393;BMP280;31129;44.810;10.334;2022-10-04T12:00:19;101397.53;;;22.87
45393;BMP280;31129;44.810;10.334;2022-10-04T12:08:57;101408.25;;;22.83
45393;BMP280;31129;44.810;10.334;2022-10-04T12:11:46;101406.78;;;23.03
45393;BMP280;31129;44.810;10.334;2022-10-04T12:15:02;101400.03;;;23.32
45393;BMP280;31129;44.810;10.334;2022-10-04T12:32:10;101387.88;;;23.64
45393;BMP280;31129;44.810;10.334;2022-10-04T12:37:58;101384.19;;;23.69
45393;BMP280;31129;44.810;10.334;2022-10-04T12:51:04;101372.94;;;23.82
45393;BMP280;31129;44.810;10.334;2022-10-04T12:53:42;101374.19;;;23.73
45393;BMP280;31129;44.810;10.334;2022-10-04T12:56:18;101373.66;;;23.54
45393;BMP280;31129;44.810;10.334;2022-10-04T13:07:55;101364.31;;;23.72
45393;BMP280;31129;44.810;10.334;2022-10-04T13:10:41;101367.16;;;23.80
45393;BMP280;31129;44.810;10.334;2022-10-04T13:19:26;101346.34;;;23.81
45393;BMP280;31129;44.810;10.334;2022-10-04T13:22:17;101347.53;;;23.93
45393;BMP280;31129;44.810;10.334;2022-10-04T13:27:47;101346.84;;;24.00
45393;BMP280;31129;44.810;10.334;2022-10-04T13:33:19;101352.72;;;23.89
45393;BMP280;31129;44.810;10.334;2022-10-04T13:36:07;101351.69;;;24.00
45393;BMP280;31129;44.810;10.334;2022-10-04T13:38:44;101356.63;;;23.65
45393;BMP280;31129;44.810;10.334;2022-10-04T14:00:59;101333.88;;;24.69
45393;BMP280;31129;44.810;10.334;2022-10-04T14:03:38;101326.56;;;24.58
45393;BMP280;31129;44.810;10.334;2022-10-04T14:12:11;101334.47;;;24.16
45393;BMP280;31129;44.810;10.334;2022-10-04T14:23:00;101337.56;;;24.13
45393;BMP280;31129;44.810;10.334;2022-10-04T14:26:03;101339.22;;;24.01
45393;BMP280;31129;44.810;10.334;2022-10-04T14:32:07;101343.50;;;24.02
45393;BMP280;31129;44.810;10.334;2022-10-04T14:34:50;101346.50;;;24.04
45393;BMP280;31129;44.810;10.334;2022-10-04T14:45:58;101347.03;;;24.02
45393;BMP280;31129;44.810;10.334;2022-10-04T14:48:46;101345.16;;;24.05
45393;BMP280;31129;44.810;10.334;2022-10-04T14:59:15;101347.69;;;23.87
45393;BMP280;31129;44.810;10.334;2022-10-04T15:02:11;101350.56;;;24.03
45393;BMP280;31129;44.810;10.334;2022-10-04T15:17:54;101342.47;;;24.20
45393;BMP280;31129;44.810;10.334;2022-10-04T15:20:24;101345.88;;;24.41
45393;BMP280;31129;44.810;10.334;2022-10-04T15:23:16;101345.13;;;24.33
45393;BMP280;31129;44.810;10.334;2022-10-04T15:25:43;101351.66;;;24.35
45393;BMP280;31129;44.810;10.334;2022-10-04T15:28:45;101342.84;;;24.24
45393;BMP280;31129;44.810;10.334;2022-10-04T15:31:40;101345.34;;;24.42
45393;BMP280;31129;44.810;10.334;2022-10-04T15:34:35;101349.72;;;24.74
45393;BMP280;31129;44.810;10.334;2022-10-04T15:42:55;101364.44;;;24.74
45393;BMP280;31129;44.810;10.334;2022-10-04T15:45:51;101348.03;;;24.86
45393;BMP280;31129;44.810;10.334;2022-10-04T15:51:37;101354.59;;;24.96
45393;BMP280;31129;44.810;10.334;2022-10-04T15:57:34;101363.16;;;24.98
45393;BMP280;31129;44.810;10.334;2022-10-04T16:00:27;101358.31;;;24.99
45393;BMP280;31129;44.810;10.334;2022-10-04T16:03:25;101357.91;;;24.87
45393;BMP280;31129;44.810;10.334;2022-10-04T16:06:03;101356.63;;;24.80
45393;BMP280;31129;44.810;10.334;2022-10-04T16:19:22;101357.78;;;24.34
45393;BMP280;31129;44.810;10.334;2022-10-04T16:21:52;101369.06;;;24.21
45393;BMP280;31129;44.810;10.334;2022-10-04T16:32:10;101369.41;;;23.53
45393;BMP280;31129;44.810;10.334;2022-10-04T16:34:49;101376.81;;;23.30
45393;BMP280;31129;44.810;10.334;2022-10-04T16:37:17;101379.16;;;23.05
45393;BMP280;31129;44.810;10.334;2022-10-04T16:45:25;101377.47;;;22.68
45393;BMP280;31129;44.810;10.334;2022-10-04T16:47:55;101389.47;;;22.63
45393;BMP280;31129;44.810;10.334;2022-10-04T16:50:52;101392.25;;;22.50
45393;BMP280;31129;44.810;10.334;2022-10-04T16:55:57;101396.69;;;22.32
45393;BMP280;31129;44.810;10.334;2022-10-04T16:58:41;101404.69;;;22.36
45393;BMP280;31129;44.810;10.334;2022-10-04T17:03:57;101415.19;;;22.16
45393;BMP280;31129;44.810;10.334;2022-10-04T17:10:26;101416.13;;;22.06
45393;BMP280;31129;44.810;10.334;2022-10-04T17:18:46;101426.34;;;21.85
45393;BMP280;31129;44.810;10.334;2022-10-04T17:32:10;101437.66;;;21.73
45393;BMP280;31129;44.810;10.334;2022-10-04T17:37:23;101439.47;;;21.71
45393;BMP280;31129;44.810;10.334;2022-10-04T17:40:16;101449.91;;;21.65
45393;BMP280;31129;44.810;10.334;2022-10-04T17:48:20;101443.16;;;21.60
45393;BMP280;31129;44.810;10.334;2022-10-04T17:57:20;101461.97;;;21.54
45393;BMP280;31129;44.810;10.334;2022-10-04T18:00:45;101456.03;;;21.45
45393;BMP280;31129;44.810;10.334;2022-10-04T18:05:46;101460.91;;;21.38
45393;BMP280;31129;44.810;10.334;2022-10-04T18:08:38;101471.19;;;21.44
45393;BMP280;31129;44.810;10.334;2022-10-04T18:11:15;101469.56;;;21.35
45393;BMP280;31129;44.810;10.334;2022-10-04T18:14:05;101473.16;;;21.30
45393;BMP280;31129;44.810;10.334;2022-10-04T18:16:52;101466.34;;;21.31
45393;BMP280;31129;44.810;10.334;2022-10-04T18:19:36;101484.72;;;21.34
45393;BMP280;31129;44.810;10.334;2022-10-04T18:22:15;101484.72;;;21.34
45393;BMP280;31129;44.810;10.334;2022-10-04T18:24:42;101483.00;;;21.31
45393;BMP280;31129;44.810;10.334;2022-10-04T18:27:24;101478.94;;;21.32
45393;BMP280;31129;44.810;10.334;2022-10-04T18:30:18;101481.38;;;21.35
45393;BMP280;31129;44.810;10.334;2022-10-04T18:32:55;101479.03;;;21.26
45393;BMP280;31129;44.810;10.334;2022-10-04T18:35:30;101475.84;;;21.17
45393;BMP280;31129;44.810;10.334;2022-10-04T18:38:16;101482.16;;;21.17
45393;BMP280;31129;44.810;10.334;2022-10-04T18:40:57;101485.91;;;21.20
45393;BMP280;31129;44.810;10.334;2022-10-04T18:43:33;101489.16;;;21.24
45393;BMP280;31129;44.810;10.334;2022-10-04T18:46:03;101482.38;;;21.19
45393;BMP280;31129;44.810;10.334;2022-10-04T18:51:24;101494.16;;;21.07
45393;BMP280;31129;44.810;10.334;2022-10-04T18:54:17;101489.88;;;21.06
45393;BMP280;31129;44.810;10.334;2022-10-04T18:57:44;101497.66;;;21.07
45393;BMP280;31129;44.810;10.334;2022-10-04T19:00:37;101486.19;;;20.98
45393;BMP280;31129;44.810;10.334;2022-10-04T19:11:27;101502.75;;;20.84
45393;BMP280;31129;44.810;10.334;2022-10-04T19:20:09;101505.84;;;20.75
45393;BMP280;31129;44.810;10.334;2022-10-04T19:25:45;101516.00;;;20.73
45393;BMP280;31129;44.810;10.334;2022-10-04T19:28:26;101521.91;;;20.64
45393;BMP280;31129;44.810;10.334;2022-10-04T19:31:08;101522.97;;;20.55
45393;BMP280;31129;44.810;10.334;2022-10-04T19:33:48;101522.47;;;20.57
45393;BMP280;31129;44.810;10.334;2022-10-04T19:41:50;101533.13;;;20.47
45393;BMP280;31129;44.810;10.334;2022-10-04T19:47:38;101535.91;;;20.47
45393;BMP280;31129;44.810;10.334;2022-10-04T19:50:33;101530.63;;;20.43
45393;BMP280;31129;44.810;10.334;2022-10-04T19:53:18;101544.50;;;20.43
45393;BMP280;31129;44.810;10.334;2022-10-04T19:55:53;101534.72;;;20.37
45393;BMP280;31129;44.810;10.334;2022-10-04T19:58:29;101544.09;;;20.34
45393;BMP280;31129;44.810;10.334;2022-10-04T20:00:57;101547.13;;;20.30
45393;BMP280;31129;44.810;10.334;2022-10-04T20:03:23;101552.69;;;20.30
45393;BMP280;31129;44.810;10.334;2022-10-04T20:05:51;101553.69;;;20.33
45393;BMP280;31129;44.810;10.334;2022-10-04T20:11:27;101555.97;;;20.29
45393;BMP280;31129;44.810;10.334;2022-10-04T20:19:35;101559.31;;;20.22
45393;BMP280;31129;44.810;10.334;2022-10-04T20:34:56;101568.69;;;20.13
45393;BMP280;31129;44.810;10.334;2022-10-04T20:45:48;101575.75;;;20.14
45393;BMP280;31129;44.810;10.334;2022-10-04T20:48:20;101580.28;;;20.11
45393;BMP280;31129;44.810;10.334;2022-10-04T20:50:52;101579.81;;;20.07
45393;BMP280;31129;44.810;10.334;2022-10-04T20:53:26;101576.06;;;20.05
45393;BMP280;31129;44.810;10.334;2022-10-04T20:56:24;101573.81;;;19.98
45393;BMP280;31129;44.810;10.334;2022-10-04T20:58:55;101574.63;;;19.93
45393;BMP280;31129;44.810;10.334;2022-10-04T21:01:23;101576.63;;;19.92
45393;BMP280;31129;44.810;10.334;2022-10-04T21:04:13;101584.69;;;19.90
45393;BMP280;31129;44.810;10.334;2022-10-04T21:06:52;101586.00;;;19.84
45393;BMP280;31129;44.810;10.334;2022-10-04T21:09:17;101586.03;;;19.78
45393;BMP280;31129;44.810;10.334;2022-10-04T21:11:44;101589.31;;;19.77
45393;BMP280;31129;44.810;10.334;2022-10-04T21:16:51;101597.19;;;19.61
45393;BMP280;31129;44.810;10.334;2022-10-04T21:22:03;101590.41;;;19.62
45393;BMP280;31129;44.810;10.334;2022-10-04T21:24:41;101594.16;;;19.59
45393;BMP280;31129;44.810;10.334;2022-10-04T21:27:08;101588.66;;;19.54
45393;BMP280;31129;44.810;10.334;2022-10-04T21:29:35;101590.41;;;19.51
45393;BMP280;31129;44.810;10.334;2022-10-04T21:32:01;101592.19;;;19.49
45393;BMP280;31129;44.810;10.334;2022-10-04T21:34:26;101592.47;;;19.40
45393;BMP280;31129;44.810;10.334;2022-10-04T21:36:52;101594.72;;;19.47
45393;BMP280;31129;44.810;10.334;2022-10-04T21:39:18;101582.66;;;19.39
45393;BMP280;31129;44.810;10.334;2022-10-04T21:41:44;101581.91;;;19.32
45393;BMP280;31129;44.810;10.334;2022-10-04T21:44:09;101591.47;;;19.37
45393;BMP280;31129;44.810;10.334;2022-10-04T21:46:35;101590.47;;;19.40
45393;BMP280;31129;44.810;10.334;2022-10-04T21:49:19;101579.16;;;19.32
45393;BMP280;31129;44.810;10.334;2022-10-04T21:51:45;101592.22;;;19.32
45393;BMP280;31129;44.810;10.334;2022-10-04T21:54:10;101590.50;;;19.29
45393;BMP280;31129;44.810;10.334;2022-10-04T21:56:36;101594.00;;;19.29
45393;BMP280;31129;44.810;10.334;2022-10-04T21:59:02;101598.28;;;19.30
45393;BMP280;31129;44.810;10.334;2022-10-04T22:01:28;101604.34;;;19.29
45393;BMP280;31129;44.810;10.334;2022-10-04T22:03:53;101597.31;;;19.22
45393;BMP280;31129;44.810;10.334;2022-10-04T22:06:18;101601.81;;;19.20
45393;BMP280;31129;44.810;10.334;2022-10-04T22:08:44;101606.38;;;19.17
45393;BMP280;31129;44.810;10.334;2022-10-04T22:11:10;101606.38;;;19.17
45393;BMP280;31129;44.810;10.334;2022-10-04T22:13:36;101603.59;;;19.23
45393;BMP280;31129;44.810;10.334;2022-10-04T22:16:02;101607.09;;;19.23
45393;BMP280;31129;44.810;10.334;2022-10-04T22:18:28;101615.16;;;19.21
45393;BMP280;31129;44.810;10.334;2022-10-04T22:20:54;101614.69;;;19.17
45393;BMP280;31129;44.810;10.334;2022-10-04T22:23:22;101613.16;;;19.16
45393;BMP280;31129;44.810;10.334;2022-10-04T22:25:48;101614.41;;;19.15
45393;BMP280;31129;44.810;10.334;2022-10-04T22:28:21;101615.69;;;19.14
45393;BMP280;31129;44.810;10.334;2022-10-04T22:30:47;101615.94;;;19.11
45393;BMP280;31129;44.810;10.334;2022-10-04T22:33:34;101615.69;;;19.09
45393;BMP280;31129;44.810;10.334;2022-10-04T22:36:19;101621.22;;;19.14
45393;BMP280;31129;44.810;10.334;2022-10-04T22:38:59;101617.69;;;19.08
45393;BMP280;31129;44.810;10.334;2022-10-04T22:41:30;101611.63;;;19.10
45393;BMP280;31129;44.810;10.334;2022-10-04T22:43:58;101609.91;;;19.07
45393;BMP280;31129;44.810;10.334;2022-10-04T22:46:32;101617.19;;;19.10
45393;BMP280;31129;44.810;10.334;2022-10-04T22:49:00;101628.78;;;19.14
45393;BMP280;31129;44.810;10.334;2022-10-04T22:51:29;101623.97;;;19.14
45393;BMP280;31129;44.810;10.334;2022-10-04T22:53:54;101625.97;;;19.19
45393;BMP280;31129;44.810;10.334;2022-10-04T22:56:20;101632.28;;;19.20
45393;BMP280;31129;44.810;10.334;2022-10-04T22:58:45;101638.81;;;19.22
45393;BMP280;31129;44.810;10.334;2022-10-04T23:01:13;101644.88;;;19.26
45393;BMP280;31129;44.810;10.334;2022-10-04T23:03:39;101643.06;;;19.23
45393;BMP280;31129;44.810;10.334;2022-10-04T23:06:08;101650.63;;;19.28
45393;BMP280;31129;44.810;10.334;2022-10-04T23:08:39;101650.88;;;19.25
45393;BMP280;31129;44.810;10.334;2022-10-04T23:11:04;101652.91;;;19.24
45393;BMP280;31129;44.810;10.334;2022-10-04T23:13:30;101653.91;;;19.21
45393;BMP280;31129;44.810;10.334;2022-10-04T23:16:08;101659.69;;;19.23
45393;BMP280;31129;44.810;10.334;2022-10-04T23:18:34;101653.16;;;19.21
45393;BMP280;31129;44.810;10.334;2022-10-04T23:21:00;101660.97;;;19.22
45393;BMP280;31129;44.810;10.334;2022-10-04T23:23:27;101656.69;;;19.21
45393;BMP280;31129;44.810;10.334;2022-10-04T23:25:54;101654.69;;;19.22
45393;BMP280;31129;44.810;10.334;2022-10-04T23:28:20;101657.69;;;19.24
45393;BMP280;31129;44.810;10.334;2022-10-04T23:30:58;101653.66;;;19.25
45393;BMP280;31129;44.810;10.334;2022-10-04T23:33:24;101654.91;;;19.18
45393;BMP280;31129;44.810;10.334;2022-10-04T23:35:50;101650.66;;;19.17
45393;BMP280;31129;44.810;10.334;2022-10-04T23:38:18;101652.66;;;19.22
45393;BMP280;31129;44.810;10.334;2022-10-04T23:40:44;101644.59;;;19.24